createdAt,value
2022-12-01T00:00:38.602Z,78.97
2022-12-01T00:05:39.855Z,78.82
2022-12-01T00:10:41.064Z,78.51
2022-12-01T00:15:42.313Z,78.87
2022-12-01T00:20:43.590Z,79.18
2022-12-01T00:25:44.889Z,79.54
2022-12-01T00:30:46.231Z,80.09
2022-12-01T00:35:47.461Z,79.55
2022-12-01T00:40:48.754Z,78.34
2022-12-01T00:45:50.130Z,78.03
2022-12-01T00:50:51.409Z,78.93
2022-12-01T00:55:54.255Z,78.62
2022-12-01T01:00:55.504Z,79.27
2022-12-01T01:05:56.824Z,79.46
2022-12-01T01:10:58.061Z,79.51
2022-12-01T01:15:59.800Z,79.90
2022-12-01T01:21:01.044Z,80.33
2022-12-01T01:26:02.387Z,79.83
2022-12-01T01:31:03.649Z,80.00
2022-12-01T01:36:04.953Z,81.01
2022-12-01T01:41:06.225Z,81.87
2022-12-01T01:46:07.476Z,82.47
2022-12-01T01:51:09.087Z,82.82
2022-12-01T01:56:10.390Z,82.46
2022-12-01T02:01:11.681Z,81.88
2022-12-01T02:06:13.696Z,83.42
2022-12-01T02:11:14.904Z,83.63
2022-12-01T02:16:16.135Z,82.84
2022-12-01T02:21:17.488Z,81.67
2022-12-01T02:26:18.707Z,80.98
2022-12-01T02:31:20.021Z,80.88
2022-12-01T02:36:21.303Z,80.60
2022-12-01T02:41:23.110Z,80.25
2022-12-01T02:46:24.555Z,81.10
2022-12-01T02:51:25.824Z,80.54
2022-12-01T02:56:27.208Z,79.71
2022-12-01T03:01:28.547Z,80.10
2022-12-01T03:06:29.861Z,81.09
2022-12-01T03:11:31.126Z,82.90
2022-12-01T03:16:32.522Z,82.97
2022-12-01T03:21:33.864Z,82.10
2022-12-01T03:26:35.609Z,82.93
2022-12-01T03:31:37.731Z,83.57
2022-12-01T03:36:39.118Z,84.71
2022-12-01T03:41:40.364Z,84.44
2022-12-01T03:46:42.452Z,83.98
2022-12-01T03:51:43.826Z,83.25
2022-12-01T03:56:45.085Z,82.81
2022-12-01T04:01:46.422Z,81.94
2022-12-01T04:06:47.793Z,81.49
2022-12-01T04:12:07.720Z,81.98
2022-12-01T04:17:08.926Z,81.94
2022-12-01T04:22:10.212Z,82.15
2022-12-01T04:27:11.482Z,81.63
2022-12-01T04:32:13.446Z,82.96
2022-12-01T04:37:14.820Z,83.62
2022-12-01T04:42:16.030Z,82.87
2022-12-01T04:47:17.268Z,82.93
2022-12-01T04:52:18.483Z,83.35
2022-12-01T04:57:19.833Z,82.96
2022-12-01T05:02:21.061Z,82.28
2022-12-01T05:07:22.463Z,81.46
2022-12-01T05:12:23.802Z,80.59
2022-12-01T05:17:25.025Z,80.65
2022-12-01T05:22:42.825Z,80.27
2022-12-01T05:27:47.534Z,79.96
2022-12-01T05:32:48.760Z,79.53
2022-12-01T05:37:49.962Z,79.53
2022-12-01T05:42:51.179Z,80.35
2022-12-01T05:47:52.463Z,80.86
2022-12-01T05:52:53.712Z,80.73
2022-12-01T05:57:55.335Z,79.90
2022-12-01T06:02:56.590Z,80.30
2022-12-01T06:07:57.983Z,80.25
2022-12-01T06:12:59.407Z,80.45
2022-12-01T06:18:00.630Z,79.70
2022-12-01T06:23:01.904Z,80.43
2022-12-01T06:28:03.156Z,80.89
2022-12-01T06:33:04.389Z,80.87
2022-12-01T06:38:05.607Z,80.64
2022-12-01T06:43:06.856Z,80.94
2022-12-01T06:48:08.493Z,81.97
2022-12-01T06:53:10.726Z,81.96
2022-12-01T06:58:11.938Z,81.54
2022-12-01T07:03:13.340Z,80.74
2022-12-01T07:08:14.658Z,80.40
2022-12-01T07:13:15.949Z,80.72
2022-12-01T07:18:17.173Z,81.18
2022-12-01T07:23:18.384Z,81.24
2022-12-01T07:28:19.653Z,79.99
2022-12-01T07:33:20.924Z,79.69
2022-12-01T07:38:22.530Z,79.78
2022-12-01T07:43:23.785Z,80.46
2022-12-01T07:48:24.987Z,80.37
2022-12-01T07:53:26.253Z,81.60
2022-12-01T07:58:27.572Z,82.42
2022-12-01T08:03:28.966Z,82.49
2022-12-01T08:08:30.434Z,80.76
2022-12-01T08:13:31.739Z,81.41
2022-12-01T08:18:32.981Z,82.97
2022-12-01T08:23:34.289Z,82.28
2022-12-01T08:28:36.036Z,81.24
2022-12-01T08:33:37.252Z,81.87
2022-12-01T08:38:38.498Z,81.09
2022-12-01T08:43:57.148Z,81.50
2022-12-01T08:48:59.996Z,80.45
2022-12-01T08:54:01.393Z,80.52
2022-12-01T08:59:03.977Z,80.54
2022-12-01T09:04:06.005Z,79.67
2022-12-01T09:09:07.780Z,80.06
2022-12-01T09:14:09.018Z,79.68
2022-12-01T09:19:12.244Z,79.41
2022-12-01T09:24:14.591Z,79.13
2022-12-01T09:29:15.882Z,78.13
2022-12-01T09:34:17.128Z,77.31
2022-12-01T09:39:18.405Z,77.52
2022-12-01T09:44:21.866Z,76.69
2022-12-01T09:49:23.102Z,75.96
2022-12-01T09:54:24.336Z,75.64
2022-12-01T09:59:25.594Z,75.75
2022-12-01T10:04:26.858Z,75.22
2022-12-01T10:09:28.174Z,74.53
2022-12-01T10:14:29.406Z,73.94
2022-12-01T10:19:31.277Z,74.07
2022-12-01T10:24:32.508Z,73.35
2022-12-01T10:29:33.752Z,73.63
2022-12-01T10:34:35.106Z,71.78
2022-12-01T10:39:36.339Z,70.98
2022-12-01T10:44:37.778Z,71.94
2022-12-01T10:49:39.106Z,70.67
2022-12-01T10:54:40.388Z,72.63
2022-12-01T10:59:41.738Z,71.21
2022-12-01T11:04:45.505Z,72.73
2022-12-01T11:09:47.522Z,72.74
2022-12-01T11:14:49.441Z,73.38
2022-12-01T11:19:50.877Z,73.45
2022-12-01T11:24:52.325Z,73.08
2022-12-01T11:29:53.645Z,72.71
2022-12-01T11:34:55.018Z,73.00
2022-12-01T11:39:56.282Z,73.53
2022-12-01T11:44:57.575Z,73.16
2022-12-01T11:49:58.963Z,73.97
2022-12-01T11:55:01.497Z,75.09
2022-12-01T12:00:04.516Z,76.63
2022-12-01T12:05:05.809Z,75.41
2022-12-01T12:10:07.309Z,74.33
2022-12-01T12:15:08.579Z,73.86
2022-12-01T12:20:10.218Z,72.19
2022-12-01T12:25:11.745Z,71.40
2022-12-01T12:30:13.012Z,72.27
2022-12-01T12:35:16.280Z,72.56
2022-12-01T12:40:17.581Z,72.03
2022-12-01T12:45:18.842Z,71.80
2022-12-01T12:50:20.046Z,72.54
2022-12-01T12:55:21.292Z,71.97
2022-12-01T13:00:22.501Z,71.98
2022-12-01T13:05:23.748Z,71.51
2022-12-01T13:10:25.029Z,71.43
2022-12-01T13:15:26.352Z,71.93
2022-12-01T13:20:27.784Z,71.44
2022-12-01T13:25:29.098Z,71.66
2022-12-01T13:30:30.459Z,70.92
2022-12-01T13:35:31.739Z,70.77
2022-12-01T13:40:32.992Z,70.64
2022-12-01T13:45:34.235Z,69.76
2022-12-01T13:50:35.563Z,69.79
2022-12-01T13:55:36.799Z,69.49
2022-12-01T14:00:38.101Z,68.40
2022-12-01T14:05:39.418Z,69.19
2022-12-01T14:10:40.707Z,69.88
2022-12-01T14:15:42.903Z,70.04
2022-12-01T14:20:44.895Z,69.16
2022-12-01T14:25:46.130Z,68.77
2022-12-01T14:30:47.420Z,67.79
2022-12-01T14:35:48.692Z,69.28
2022-12-01T14:40:50.008Z,68.71
2022-12-01T14:45:51.278Z,68.56
2022-12-01T14:50:52.502Z,68.64
2022-12-01T14:55:53.802Z,69.13
2022-12-01T15:00:55.076Z,70.06
2022-12-01T15:05:56.343Z,72.33
2022-12-01T15:10:57.624Z,72.52
2022-12-01T15:15:58.941Z,71.43
2022-12-01T15:21:00.195Z,73.77
2022-12-01T15:26:01.480Z,70.35
2022-12-01T15:31:02.739Z,70.98
2022-12-01T15:36:04.000Z,69.11
2022-12-01T15:46:26.418Z,69.01
2022-12-01T15:51:27.761Z,69.77
2022-12-01T15:56:29.100Z,69.73
2022-12-01T16:01:30.482Z,68.58
2022-12-01T16:06:31.819Z,69.11
2022-12-01T16:11:33.184Z,69.14
2022-12-01T16:16:34.688Z,69.67
2022-12-01T16:21:36.090Z,69.74
2022-12-01T16:26:38.238Z,69.50
2022-12-01T16:31:58.635Z,69.61
2022-12-01T16:37:00.680Z,69.46
2022-12-01T16:42:02.090Z,70.04
2022-12-01T16:47:03.491Z,70.22
2022-12-01T16:52:15.996Z,70.53
2022-12-01T16:57:26.040Z,70.75
2022-12-01T17:02:27.335Z,71.58
2022-12-01T17:07:37.621Z,71.89
2022-12-01T17:12:39.007Z,71.95
2022-12-01T17:17:40.265Z,71.93
2022-12-01T17:22:41.477Z,71.98
2022-12-01T17:27:43.904Z,73.60
2022-12-01T17:32:46.608Z,74.25
2022-12-01T17:37:47.872Z,74.11
2022-12-01T17:42:51.051Z,74.22
2022-12-01T17:47:52.533Z,73.86
2022-12-01T17:52:53.782Z,73.87
2022-12-01T17:57:55.086Z,74.20
2022-12-01T18:02:56.387Z,73.66
2022-12-01T18:07:57.770Z,73.80
2022-12-01T18:12:59.092Z,75.24
2022-12-01T18:18:00.359Z,74.59
2022-12-01T18:23:01.633Z,74.40
2022-12-01T18:28:03.028Z,74.27
2022-12-01T18:33:04.370Z,73.97
2022-12-01T18:38:05.669Z,73.61
2022-12-01T18:43:06.954Z,73.85
2022-12-01T18:48:08.177Z,73.11
2022-12-01T18:53:09.408Z,72.58
2022-12-01T18:58:10.656Z,71.91
2022-12-01T19:03:12.008Z,72.32
2022-12-01T19:08:13.305Z,72.78
2022-12-01T19:13:14.645Z,71.90
2022-12-01T19:18:15.861Z,72.17
2022-12-01T19:23:17.124Z,71.17
2022-12-01T19:28:18.404Z,71.35
2022-12-01T19:33:19.806Z,71.29
2022-12-01T19:38:21.054Z,70.91
2022-12-01T19:43:22.429Z,70.86
2022-12-01T19:48:23.690Z,70.49
2022-12-01T19:53:27.914Z,70.38
2022-12-01T19:58:33.330Z,71.01
2022-12-01T20:03:34.585Z,71.82
2022-12-01T20:08:36.345Z,72.66
2022-12-01T20:13:37.745Z,72.41
2022-12-01T20:18:39.036Z,72.01
2022-12-01T20:23:40.282Z,71.63
2022-12-01T20:28:41.533Z,72.48
2022-12-01T20:33:42.732Z,72.87
2022-12-01T20:38:43.994Z,72.57
2022-12-01T20:43:45.261Z,73.82
2022-12-01T20:48:46.503Z,74.88
2022-12-01T20:54:12.374Z,74.42
2022-12-01T20:59:09.005Z,73.96
2022-12-01T21:04:10.251Z,75.14
2022-12-01T21:09:13.022Z,75.62
2022-12-01T21:14:14.297Z,75.32
2022-12-01T21:19:15.861Z,76.71
2022-12-01T21:24:18.611Z,76.77
2022-12-01T21:29:19.949Z,76.85
2022-12-01T21:34:21.954Z,77.48
2022-12-01T21:39:27.894Z,78.02
2022-12-01T21:44:34.885Z,78.31
2022-12-01T21:49:36.286Z,79.52
2022-12-01T21:54:37.537Z,79.52
2022-12-01T21:59:38.790Z,80.13
2022-12-01T22:04:40.033Z,80.19
2022-12-01T22:09:41.278Z,81.52
2022-12-01T22:14:42.594Z,81.58
2022-12-01T22:19:44.825Z,82.16
2022-12-01T22:24:46.230Z,82.56
2022-12-01T22:29:47.598Z,83.44
2022-12-01T22:34:49.340Z,82.54
2022-12-01T22:39:50.835Z,81.48
2022-12-01T22:44:52.361Z,83.20
2022-12-01T22:49:53.705Z,83.93
2022-12-01T22:54:54.922Z,84.11
2022-12-01T22:59:56.226Z,83.71
2022-12-01T23:04:57.592Z,84.60
2022-12-01T23:09:58.853Z,84.82
2022-12-01T23:15:00.183Z,84.42
2022-12-01T23:20:01.499Z,84.54
2022-12-01T23:25:02.818Z,84.88
2022-12-01T23:30:04.093Z,84.03
2022-12-01T23:35:05.381Z,82.93
2022-12-01T23:40:06.677Z,83.13
2022-12-01T23:45:07.927Z,83.53
2022-12-01T23:50:09.153Z,83.07
2022-12-01T23:55:10.416Z,82.54
